Time;durP1;ratioP1;P1;durP2;ratioP2;P2;SDS_P1;SDS_P2;PMS_P1;PMS_P2;Temp;Humidity;BMP_temperature;BMP_pressure;BME280_temperature;BME280_humidity;BME280_pressure;Samples;Min_cycle;Max_cycle;Signal;HPM_P1;HPM_P2
2021/03/11 00:01:18;;;;;;;64.07;36.43;;;;;;;-2.91;53.24;100608.62;124536;1109;104239;-78
2021/03/11 00:03:45;;;;;;;66.80;35.83;;;;;;;-2.93;53.27;100612.81;124745;1105;104287;-77
2021/03/11 00:06:12;;;;;;;68.30;36.53;;;;;;;-2.95;53.58;100610.22;124544;1105;104216;-78
2021/03/11 00:08:39;;;;;;;67.43;36.07;;;;;;;-2.95;53.56;100611.91;124518;1105;104166;-78
2021/03/11 00:11:06;;;;;;;70.03;38.27;;;;;;;-2.96;53.58;100610.19;124560;1107;105405;-78
2021/03/11 00:13:33;;;;;;;68.07;36.43;;;;;;;-2.99;53.29;100599.90;124508;1105;104293;-78
2021/03/11 00:16:00;;;;;;;68.70;37.40;;;;;;;-3.00;53.59;100593.06;124608;1106;104285;-77
2021/03/11 00:18:27;;;;;;;62.67;35.87;;;;;;;-3.03;53.47;100587.88;124597;1105;104136;-79
2021/03/11 00:20:54;;;;;;;65.23;36.43;;;;;;;-3.05;53.52;100572.53;124571;1105;105801;-78
2021/03/11 00:23:33;;;;;;;69.00;36.33;;;;;;;-3.09;53.94;100561.35;124522;1109;102080;-78
2021/03/11 00:26:00;;;;;;;65.20;36.50;;;;;;;-3.11;53.52;100560.45;124507;1109;104557;-78
2021/03/11 00:28:27;;;;;;;70.35;36.77;;;;;;;-3.11;54.01;100559.58;124554;1106;104326;-77
2021/03/11 00:30:54;;;;;;;61.10;34.43;;;;;;;-3.14;53.70;100552.71;124537;1109;104232;-77
2021/03/11 00:33:21;;;;;;;64.20;34.03;;;;;;;-3.15;53.98;100556.09;124584;1107;103013;-78
2021/03/11 00:35:48;;;;;;;67.73;36.30;;;;;;;-3.16;54.37;100556.05;124558;1105;104276;-78
2021/03/11 00:38:15;;;;;;;65.80;35.83;;;;;;;-3.18;54.51;100553.45;124528;1109;104194;-79
2021/03/11 00:40:43;;;;;;;64.53;34.63;;;;;;;-3.20;54.07;100549.14;124678;1106;104133;-78
2021/03/11 00:43:12;;;;;;;67.77;36.97;;;;;;;-3.22;53.41;100551.65;124605;1106;104226;-79
2021/03/11 00:45:39;;;;;;;65.17;35.00;;;;;;;-3.22;53.85;100551.65;124547;1106;104113;-78
2021/03/11 00:48:06;;;;;;;66.70;35.77;;;;;;;-3.23;54.19;100560.13;124529;1105;104156;-78
2021/03/11 00:50:34;;;;;;;66.97;34.63;;;;;;;-3.25;54.06;100546.44;124574;1105;104172;-78
2021/03/11 00:53:02;;;;;;;61.43;34.57;;;;;;;-3.26;53.96;100544.70;124611;1105;104139;-77
2021/03/11 00:55:29;;;;;;;63.67;34.83;;;;;;;-3.28;53.68;100533.60;124528;1106;104252;-76
2021/03/11 00:57:56;;;;;;;64.23;36.10;;;;;;;-3.29;53.48;100536.97;124538;1106;104239;-81
2021/03/11 01:00:26;;;;;;;65.77;34.37;;;;;;;-3.31;54.06;100541.17;124736;1105;104120;-78
2021/03/11 01:03:00;;;;;;;62.87;33.27;;;;;;;-3.32;53.77;100539.45;124521;1106;104172;-78
2021/03/11 01:05:33;;;;;;;54.80;31.07;;;;;;;-3.32;54.11;100538.58;124488;1105;104270;-77
2021/03/11 01:08:06;;;;;;;65.00;34.37;;;;;;;-3.35;54.57;100544.47;124575;1105;104697;-78
2021/03/11 01:10:35;;;;;;;64.63;33.27;;;;;;;-3.37;54.23;100536.77;124534;1109;104379;-78
2021/03/11 01:13:03;;;;;;;55.20;32.87;;;;;;;-3.40;53.68;100535.83;124478;1106;104185;-77
2021/03/11 01:15:34;;;;;;;63.37;33.80;;;;;;;-3.41;54.17;100541.72;124604;1108;102731;-77
2021/03/11 01:18:01;;;;;;;68.90;35.57;;;;;;;-3.43;54.01;100530.61;124515;1105;104223;-77
2021/03/11 01:20:28;;;;;;;64.05;34.90;;;;;;;-3.45;54.41;100528.02;124597;1105;104094;-77
2021/03/11 01:22:55;;;;;;;65.83;35.10;;;;;;;-3.46;54.13;100530.53;124528;1106;104691;-77
2021/03/11 01:25:22;;;;;;;64.25;35.20;;;;;;;-3.49;54.06;100531.31;124693;1105;104290;-78
2021/03/11 01:27:49;;;;;;;60.93;34.03;;;;;;;-3.50;54.79;100538.92;124564;1108;104190;-77
2021/03/11 01:30:17;;;;;;;65.87;35.17;;;;;;;-3.51;54.47;100526.99;124761;1105;104156;-78
2021/03/11 01:32:44;;;;;;;61.90;34.83;;;;;;;-3.52;54.62;100526.13;124555;1105;103104;-78
2021/03/11 01:35:12;;;;;;;64.90;34.50;;;;;;;-3.54;54.92;100521.81;124748;1105;104156;-78
2021/03/11 01:37:39;;;;;;;64.07;34.33;;;;;;;-3.56;54.58;100515.81;124703;1105;104134;-78
2021/03/11 01:40:08;;;;;;;68.20;34.53;;;;;;;-3.57;54.84;100511.53;124569;1106;104265;-77
2021/03/11 01:42:36;;;;;;;64.23;35.43;;;;;;;-3.59;54.58;100513.14;124612;1109;104627;-77
2021/03/11 01:45:05;;;;;;;65.10;35.30;;;;;;;-3.61;55.06;100502.04;124611;1105;103324;-77
2021/03/11 01:47:32;;;;;;;63.33;34.60;;;;;;;-3.64;55.21;100502.82;124513;1106;104286;-77
2021/03/11 01:50:00;;;;;;;69.87;34.80;;;;;;;-3.66;54.84;100500.23;124523;1106;104190;-78
2021/03/11 01:52:28;;;;;;;65.33;35.27;;;;;;;-3.68;55.53;100499.33;124595;1106;104222;-78
2021/03/11 01:54:55;;;;;;;64.45;34.70;;;;;;;-3.70;55.53;100495.88;124554;1105;103298;-78
2021/03/11 01:57:22;;;;;;;72.37;36.37;;;;;;;-3.71;55.35;100491.59;124580;1105;104130;-78
2021/03/11 01:59:49;;;;;;;67.27;35.20;;;;;;;-3.72;55.41;100489.87;124667;1105;104172;-77
2021/03/11 02:02:17;;;;;;;66.63;35.37;;;;;;;-3.73;55.42;100485.59;124532;1109;104175;-78
2021/03/11 02:04:44;;;;;;;63.47;34.80;;;;;;;-3.75;55.45;100484.69;124537;1105;104210;-78
2021/03/11 02:07:11;;;;;;;63.15;34.88;;;;;;;-3.75;55.68;100481.27;124750;1105;105353;-78
2021/03/11 02:09:38;;;;;;;64.53;34.90;;;;;;;-3.77;55.59;100482.89;124609;1105;104207;-78
2021/03/11 02:12:29;;;;;;;67.20;35.20;;;;;;;-3.80;56.22;100483.66;124611;1105;104946;-78
2021/03/11 02:15:15;;;;;;;68.43;36.27;;;;;;;-3.82;55.79;100480.20;124568;1106;104169;-77
2021/03/11 02:18:03;;;;;;;68.50;35.63;;;;;;;-3.85;55.78;100472.48;124543;1106;104105;-77
2021/03/11 02:20:45;;;;;;;68.63;36.67;;;;;;;-3.87;55.73;100475.81;124639;1105;104172;-77
2021/03/11 02:23:42;;;;;;;64.53;35.33;;;;;;;-3.90;55.94;100471.49;124576;1106;104146;-78
2021/03/11 02:26:32;;;;;;;67.58;30.82;;;;;;;-3.93;56.37;100470.55;124622;1106;104159;-78
2021/03/11 02:29:06;;;;;;;70.73;35.93;;;;;;;-3.96;56.61;100469.61;124791;1105;104124;-77
2021/03/11 02:31:39;;;;;;;73.10;37.50;;;;;;;-3.99;56.46;100461.88;124799;1105;102858;-77
2021/03/11 02:34:13;;;;;;;69.17;36.13;;;;;;;-4.00;55.97;100452.51;124608;1105;104169;-78
2021/03/11 02:36:42;;;;;;;64.57;35.70;;;;;;;-4.02;56.28;100445.64;124757;1105;104101;-78
2021/03/11 02:39:15;;;;;;;67.83;36.03;;;;;;;-4.03;56.20;100454.11;124611;1109;103954;-78
2021/03/11 02:41:44;;;;;;;75.27;37.30;;;;;;;-4.05;56.36;100450.66;124627;1106;105229;-78
2021/03/11 02:44:12;;;;;;;68.10;33.67;;;;;;;-4.06;56.57;100439.59;124795;1105;104618;-78
2021/03/11 02:46:42;;;;;;;68.20;35.73;;;;;;;-4.07;56.32;100442.10;124762;1105;104227;-78
2021/03/11 02:49:10;;;;;;;71.87;36.40;;;;;;;-4.08;56.23;100436.15;124795;1105;104262;-78
2021/03/11 02:51:38;;;;;;;65.37;34.83;;;;;;;-4.09;55.86;100428.47;124801;1105;104082;-78
2021/03/11 02:54:06;;;;;;;69.67;36.57;;;;;;;-4.09;55.98;100423.37;124601;1105;104664;-78
2021/03/11 02:56:34;;;;;;;64.47;34.03;;;;;;;-4.12;56.34;100426.70;124539;1105;104203;-78
2021/03/11 02:59:05;;;;;;;64.60;36.67;;;;;;;-4.13;56.47;100430.06;124787;1105;104646;-77
2021/03/11 03:01:32;;;;;;;70.13;35.23;;;;;;;-4.15;56.32;100429.12;124726;1106;104150;-78
2021/03/11 03:04:02;;;;;;;74.40;36.03;;;;;;;-4.16;55.55;100422.30;124571;1108;103977;-78
2021/03/11 03:06:30;;;;;;;64.90;36.17;;;;;;;-4.15;56.13;100433.36;124801;1105;105756;-78
2021/03/11 03:08:58;;;;;;;71.53;37.50;;;;;;;-4.17;56.29;100435.86;124602;1105;104261;-78
2021/03/11 03:11:26;;;;;;;66.43;35.63;;;;;;;-4.17;56.40;100437.54;124588;1105;104210;-78
2021/03/11 03:13:54;;;;;;;69.87;35.23;;;;;;;-4.18;56.18;100433.27;124487;1106;104334;-78
2021/03/11 03:16:22;;;;;;;66.90;35.97;;;;;;;-4.20;56.43;100429.81;124643;1105;104261;-78
2021/03/11 03:18:49;;;;;;;71.95;37.60;;;;;;;-4.21;56.23;100431.50;124810;1105;103992;-78
2021/03/11 03:21:16;;;;;;;67.10;36.75;;;;;;;-4.23;56.28;100434.82;124591;1105;104101;-78
2021/03/11 03:23:44;;;;;;;72.73;37.47;;;;;;;-4.24;56.85;100433.09;124528;1106;104368;-78
2021/03/11 03:26:12;;;;;;;73.80;37.80;;;;;;;-4.26;56.87;100430.50;124545;1105;104290;-78
2021/03/11 03:28:39;;;;;;;70.53;37.80;;;;;;;-4.27;57.16;100426.23;124572;1105;104348;-77
2021/03/11 03:31:06;;;;;;;77.53;39.27;;;;;;;-4.29;57.05;100427.88;124547;1105;104322;-78
2021/03/11 03:33:33;;;;;;;77.43;39.47;;;;;;;-4.31;56.76;100430.37;124571;1109;104246;-78
2021/03/11 03:36:01;;;;;;;74.63;37.43;;;;;;;-4.32;57.06;100420.11;124554;1105;104303;-78
2021/03/11 03:38:28;;;;;;;78.70;39.27;;;;;;;-4.34;57.01;100417.52;124549;1106;104165;-78
2021/03/11 03:41:00;;;;;;;74.07;38.40;;;;;;;-4.35;57.06;100415.80;124613;1107;104665;-78
2021/03/11 03:43:32;;;;;;;76.03;38.43;;;;;;;-4.37;57.18;100427.62;124599;1105;104181;-78
2021/03/11 03:46:08;;;;;;;72.00;37.83;;;;;;;-4.38;56.73;100430.98;124654;1105;104265;-78
2021/03/11 03:48:42;;;;;;;76.07;37.90;;;;;;;-4.39;57.06;100418.21;124520;1106;104644;-77
2021/03/11 03:51:11;;;;;;;71.67;37.73;;;;;;;-4.41;57.44;100418.17;124780;1105;104134;-77
2021/03/11 03:53:45;;;;;;;72.43;37.10;;;;;;;-4.41;56.91;100424.94;124518;1109;103918;-77
2021/03/11 03:56:37;;;;;;;71.63;36.30;;;;;;;-4.43;56.67;100412.17;124792;1105;104235;-77
2021/03/11 03:59:08;;;;;;;67.80;36.63;;;;;;;-4.44;57.08;100420.63;124799;1105;104156;-78
2021/03/11 04:01:39;;;;;;;70.40;37.57;;;;;;;-4.44;57.09;100427.39;124561;1105;104098;-77
2021/03/11 04:04:08;;;;;;;68.67;35.90;;;;;;;-4.47;57.21;100423.08;124447;1106;104197;-78
2021/03/11 04:06:37;;;;;;;69.73;35.97;;;;;;;-4.47;57.35;100415.44;124518;1106;104159;-78
2021/03/11 04:09:11;;;;;;;69.07;36.80;;;;;;;-4.48;57.07;100413.72;124574;1105;104124;-78
2021/03/11 04:11:42;;;;;;;71.27;36.87;;;;;;;-4.50;57.54;100410.23;124546;1105;104102;-78
2021/03/11 04:14:11;;;;;;;72.20;36.50;;;;;;;-4.50;56.80;100414.45;124629;1106;104155;-78
2021/03/11 04:16:40;;;;;;;70.87;37.13;;;;;;;-4.52;57.35;100409.32;124565;1109;105329;-78
2021/03/11 04:19:09;;;;;;;69.47;36.17;;;;;;;-4.52;56.98;100405.91;124576;1108;104021;-78
2021/03/11 04:21:37;;;;;;;71.00;36.25;;;;;;;-4.53;57.28;100401.64;124586;1105;104155;-78
2021/03/11 04:24:05;;;;;;;65.97;35.77;;;;;;;-4.54;57.42;100397.37;124813;1105;104227;-79
2021/03/11 04:26:35;;;;;;;69.47;35.67;;;;;;;-4.57;57.44;100387.97;124536;1109;104213;-78
2021/03/11 04:29:03;;;;;;;66.43;36.43;;;;;;;-4.57;56.99;100387.97;124754;1105;104079;-78
2021/03/11 04:31:31;;;;;;;69.30;35.43;;;;;;;-4.56;57.26;100399.87;124731;1105;104274;-78
2021/03/11 04:33:59;;;;;;;66.73;35.47;;;;;;;-4.58;56.99;100391.33;124600;1105;104265;-78
2021/03/11 04:36:28;;;;;;;69.50;36.40;;;;;;;-4.58;57.11;100388.78;124675;1105;104085;-78
2021/03/11 04:38:56;;;;;;;67.13;36.37;;;;;;;-4.59;56.90;100380.28;124554;1105;104210;-78
2021/03/11 04:41:26;;;;;;;67.23;34.20;;;;;;;-4.60;57.70;100387.88;124546;1109;104159;-79
2021/03/11 04:43:59;;;;;;;66.37;34.60;;;;;;;-4.61;57.81;100376.83;124597;1106;104188;-78
2021/03/11 04:46:27;;;;;;;69.13;36.60;;;;;;;-4.60;57.36;100375.16;124572;1105;104139;-78
2021/03/11 04:48:56;;;;;;;62.47;34.10;;;;;;;-4.61;57.21;100370.88;124736;1105;104334;-78
2021/03/11 04:51:23;;;;;;;67.70;35.23;;;;;;;-4.61;57.56;100370.88;124566;1106;104299;-78
2021/03/11 04:53:53;;;;;;;68.53;36.33;;;;;;;-4.61;57.73;100381.92;124752;1105;104297;-78
2021/03/11 04:56:24;;;;;;;69.03;36.47;;;;;;;-4.59;57.23;100374.33;124770;1105;104101;-78
2021/03/11 04:58:51;;;;;;;68.47;35.60;;;;;;;-4.60;57.21;100370.92;124808;1105;104147;-78
2021/03/11 05:01:23;;;;;;;62.25;33.30;;;;;;;-4.60;57.01;100360.74;124559;1105;104376;-78
2021/03/11 05:03:51;;;;;;;63.77;34.87;;;;;;;-4.59;57.44;100364.16;124815;1106;104256;-78
2021/03/11 05:06:19;;;;;;;64.20;34.43;;;;;;;-4.58;57.33;100366.74;124628;1108;104386;-78
2021/03/11 05:08:46;;;;;;;58.60;33.33;;;;;;;-4.54;57.49;100361.73;124786;1106;104127;-78
2021/03/11 05:11:14;;;;;;;63.47;33.90;;;;;;;-4.54;57.25;100365.14;124571;1105;104267;-78
2021/03/11 05:13:41;;;;;;;63.87;34.37;;;;;;;-4.49;57.27;100355.95;124552;1106;104800;-78
2021/03/11 05:16:08;;;;;;;68.10;35.40;;;;;;;-4.46;57.05;100340.80;124611;1105;104216;-78
2021/03/11 05:18:36;;;;;;;68.78;33.95;;;;;;;-4.40;56.86;100351.16;124471;1109;105794;-79
2021/03/11 05:21:03;;;;;;;60.70;33.10;;;;;;;-4.32;57.36;100353.91;124530;1106;104162;-78
2021/03/11 05:23:30;;;;;;;64.40;34.30;;;;;;;-4.21;56.78;100352.55;124576;1106;104198;-78
2021/03/11 05:25:57;;;;;;;65.30;34.17;;;;;;;-4.06;56.89;100341.94;124724;1105;104127;-78
2021/03/11 05:28:25;;;;;;;65.40;33.50;;;;;;;-3.80;56.26;100333.31;124581;1106;104201;-79
2021/03/11 05:30:52;;;;;;;58.03;33.30;;;;;;;-3.43;55.08;100336.82;124679;1105;104290;-78
2021/03/11 05:33:19;;;;;;;68.53;34.37;;;;;;;-3.10;54.92;100326.59;124494;1105;104169;-78
2021/03/11 05:35:46;;;;;;;64.23;33.70;;;;;;;-2.86;54.31;100334.84;124654;1105;105217;-78
2021/03/11 05:38:14;;;;;;;66.93;34.80;;;;;;;-2.74;53.67;100334.24;124540;1109;104342;-78
2021/03/11 05:40:41;;;;;;;64.20;34.60;;;;;;;-2.68;53.16;100336.09;124551;1105;104191;-78
2021/03/11 05:43:09;;;;;;;66.33;34.98;;;;;;;-2.64;53.46;100322.56;124565;1109;104172;-77
2021/03/11 05:45:37;;;;;;;59.77;34.47;;;;;;;-2.57;53.37;100309.09;124851;1105;104270;-77
2021/03/11 05:48:05;;;;;;;72.00;37.30;;;;;;;-2.47;53.14;100309.33;124599;1109;104616;-77
2021/03/11 05:50:32;;;;;;;70.45;35.60;;;;;;;-2.32;53.05;100306.24;124512;1105;102682;-78
2021/03/11 05:53:00;;;;;;;57.30;33.87;;;;;;;-2.15;52.34;100302.34;124502;1106;104307;-77
2021/03/11 05:55:28;;;;;;;63.85;34.70;;;;;;;-1.97;51.36;100290.75;124555;1105;104108;-76
2021/03/11 05:57:56;;;;;;;56.47;33.57;;;;;;;-1.74;51.27;100299.70;124597;1105;104662;-77
2021/03/11 06:00:23;;;;;;;58.17;31.73;;;;;;;-1.40;50.59;100283.25;124561;1106;104194;-77
2021/03/11 06:02:57;;;;;;;53.17;31.93;;;;;;;-0.99;49.88;100290.71;124741;1105;104280;-77
2021/03/11 06:05:25;;;;;;;50.27;31.63;;;;;;;-0.49;48.42;100280.32;124563;1109;104290;-77
2021/03/11 06:07:53;;;;;;;53.03;32.67;;;;;;;0.14;48.12;100276.77;124855;1105;104194;-77
2021/03/11 06:10:23;;;;;;;47.30;29.00;;;;;;;0.95;46.53;100272.38;124616;1106;104172;-78
2021/03/11 06:12:51;;;;;;;46.17;28.20;;;;;;;1.85;45.23;100257.43;124615;1109;104280;-78
2021/03/11 06:15:34;;;;;;;45.97;27.70;;;;;;;2.66;43.30;100266.13;124557;1105;104187;-78
2021/03/11 06:18:06;;;;;;;42.63;27.87;;;;;;;3.30;42.54;100261.78;124600;1106;104326;-78
2021/03/11 06:20:35;;;;;;;42.07;27.50;;;;;;;3.62;40.49;100260.84;124613;1105;104184;-78
2021/03/11 06:23:03;;;;;;;43.97;27.03;;;;;;;4.03;40.18;100258.06;124597;1108;104284;-79
2021/03/11 06:25:30;;;;;;;43.07;26.93;;;;;;;4.60;39.89;100237.02;124505;1108;102466;-78
2021/03/11 06:28:00;;;;;;;42.63;27.47;;;;;;;5.22;38.79;100239.05;124530;1106;102892;-78
2021/03/11 06:30:35;;;;;;;41.30;27.93;;;;;;;5.56;37.81;100225.70;124731;1105;104274;-79
2021/03/11 06:33:05;;;;;;;40.83;26.67;;;;;;;5.81;37.07;100218.51;124616;1105;104207;-79
2021/03/11 06:35:34;;;;;;;47.17;28.97;;;;;;;6.23;35.70;100211.89;124604;1105;104155;-78
2021/03/11 06:38:01;;;;;;;43.03;27.80;;;;;;;6.54;35.64;100196.73;124547;1109;101741;-79
2021/03/11 06:40:30;;;;;;;47.93;27.83;;;;;;;6.74;34.17;100191.21;124510;1106;104168;-78
2021/03/11 06:43:26;;;;;;;42.80;27.60;;;;;;;7.03;34.15;100207.11;124454;1109;104267;-78
2021/03/11 06:46:07;;;;;;;40.87;27.53;;;;;;;7.19;33.34;100197.31;124472;1105;104230;-78
2021/03/11 06:48:37;;;;;;;40.60;26.80;;;;;;;7.39;31.66;100184.80;124551;1105;104204;-79
2021/03/11 06:51:19;;;;;;;43.43;28.30;;;;;;;7.58;32.64;100180.09;124529;1105;104165;-80
2021/03/11 06:54:00;;;;;;;39.63;26.30;;;;;;;7.87;31.94;100180.30;124565;1106;103110;-78
2021/03/11 06:56:28;;;;;;;46.30;26.43;;;;;;;7.92;30.51;100171.58;124592;1105;104600;-78
2021/03/11 06:59:01;;;;;;;45.67;28.10;;;;;;;7.85;31.20;100179.48;124553;1109;104211;-78
2021/03/11 07:01:33;;;;;;;46.80;27.90;;;;;;;7.83;30.83;100183.86;124556;1106;104107;-79
2021/03/11 07:04:02;;;;;;;40.33;26.67;;;;;;;7.89;30.99;100175.06;124562;1105;105030;-80
2021/03/11 07:06:37;;;;;;;41.97;25.73;;;;;;;8.13;31.63;100173.67;124598;1109;104245;-79
2021/03/11 07:09:06;;;;;;;47.10;28.10;;;;;;;8.33;30.69;100170.59;124549;1109;104271;-79
2021/03/11 07:11:34;;;;;;;47.30;28.60;;;;;;;8.36;29.92;100176.60;124542;1106;104095;-79
2021/03/11 07:14:03;;;;;;;41.70;27.47;;;;;;;8.41;30.59;100171.28;124483;1106;104155;-78
2021/03/11 07:16:34;;;;;;;44.20;28.70;;;;;;;8.51;30.78;100166.73;124511;1106;104146;-79
2021/03/11 07:19:15;;;;;;;42.60;27.70;;;;;;;8.74;29.87;100152.24;124557;1109;104213;-78
2021/03/11 07:21:49;;;;;;;46.00;29.47;;;;;;;8.44;29.23;100174.69;124712;1106;104159;-78
2021/03/11 07:24:33;;;;;;;40.57;28.07;;;;;;;7.95;30.48;100177.55;124571;1106;104117;-79
2021/03/11 07:27:02;;;;;;;45.77;28.07;;;;;;;7.40;30.60;100177.88;124554;1106;104201;-79
2021/03/11 07:29:29;;;;;;;43.90;29.37;;;;;;;6.90;30.98;100175.36;124505;1109;104197;-79
2021/03/11 07:32:05;;;;;;;48.53;29.87;;;;;;;6.71;31.32;100166.20;124535;1106;104261;-80
2021/03/11 07:34:37;;;;;;;46.30;29.37;;;;;;;6.53;32.46;100140.61;124524;1109;104248;-79
2021/03/11 07:37:05;;;;;;;49.17;29.37;;;;;;;6.21;32.05;100141.14;124615;1105;104056;-78
2021/03/11 07:39:36;;;;;;;53.97;30.63;;;;;;;5.96;32.86;100140.68;124545;1109;104169;-79
2021/03/11 07:42:08;;;;;;;51.57;32.47;;;;;;;5.81;32.92;100140.87;124628;1109;104230;-80
2021/03/11 07:44:37;;;;;;;50.23;31.73;;;;;;;5.51;33.83;100140.41;124577;1109;104281;-79
2021/03/11 07:47:09;;;;;;;54.20;30.10;;;;;;;5.20;34.09;100133.89;124498;1105;104015;-79
2021/03/11 07:49:37;;;;;;;47.97;31.60;;;;;;;5.04;34.46;100146.17;124567;1105;104217;-79
2021/03/11 07:52:06;;;;;;;51.67;30.50;;;;;;;4.95;35.40;100161.77;124542;1106;104057;-80
2021/03/11 07:54:35;;;;;;;51.93;30.53;;;;;;;4.80;35.32;100118.84;124618;1106;104239;-80
2021/03/11 07:57:03;;;;;;;47.50;30.70;;;;;;;4.72;36.15;100144.78;124573;1105;104261;-79
2021/03/11 07:59:32;;;;;;;48.07;29.83;;;;;;;4.56;35.98;100127.72;124553;1109;104306;-79
2021/03/11 08:02:10;;;;;;;43.10;28.63;;;;;;;4.44;36.79;100145.89;124532;1106;104197;-79
2021/03/11 08:04:42;;;;;;;49.20;29.00;;;;;;;4.07;37.14;100138.45;124587;1105;104644;-79
2021/03/11 08:07:24;;;;;;;48.97;27.77;;;;;;;3.81;37.62;100119.73;124663;1108;104104;-79
2021/03/11 08:09:54;;;;;;;41.80;26.73;;;;;;;3.56;38.71;100119.86;124610;1105;104175;-79
2021/03/11 08:12:39;;;;;;;43.43;26.93;;;;;;;3.40;39.04;100102.76;124592;1109;104274;-79
2021/03/11 08:15:27;;;;;;;40.10;23.83;;;;;;;3.09;39.87;100157.91;124617;1108;104015;-78
2021/03/11 08:17:54;;;;;;;35.47;22.57;;;;;;;2.71;40.42;100115.94;124724;1105;104197;-79
2021/03/11 08:20:22;;;;;;;36.03;20.57;;;;;;;2.35;41.19;100127.15;124537;1106;104208;-79
2021/03/11 08:22:55;;;;;;;38.30;22.85;;;;;;;2.03;41.84;100116.00;124507;1105;104140;-79
2021/03/11 08:25:41;;;;;;;39.23;22.63;;;;;;;1.78;42.78;100131.39;124615;1105;104258;-79
2021/03/11 08:28:09;;;;;;;35.20;22.70;;;;;;;1.58;43.24;100093.66;124626;1105;104550;-78
2021/03/11 08:30:38;;;;;;;32.63;21.07;;;;;;;1.47;43.71;100093.66;124547;1109;104091;-79
2021/03/11 08:33:09;;;;;;;42.30;22.60;;;;;;;1.40;44.27;100089.33;124759;1106;104155;-78
2021/03/11 08:35:55;;;;;;;37.53;22.97;;;;;;;1.34;44.29;100099.61;124580;1109;105226;-79
2021/03/11 08:38:22;;;;;;;31.63;19.30;;;;;;;1.28;44.48;100122.72;124568;1106;104104;-78
2021/03/11 08:41:11;;;;;;;33.75;20.92;;;;;;;1.19;44.65;100097.84;124724;1106;104229;-79
2021/03/11 08:43:39;;;;;;;34.57;20.37;;;;;;;1.15;44.81;100093.55;124591;1105;104204;-80
2021/03/11 08:46:17;;;;;;;34.77;21.00;;;;;;;1.21;44.64;100078.15;124793;1106;102027;-79
2021/03/11 08:48:50;;;;;;;32.57;19.23;;;;;;;1.21;44.80;100076.44;124536;1106;104168;-79
2021/03/11 08:51:18;;;;;;;29.07;19.20;;;;;;;1.17;44.45;100056.73;124585;1109;104143;-79
2021/03/11 08:53:59;;;;;;;28.87;19.30;;;;;;;1.12;44.68;100058.45;124779;1106;104114;-78
2021/03/11 08:56:26;;;;;;;28.10;17.70;;;;;;;1.06;44.11;100042.14;124749;1105;104224;-78
2021/03/11 08:58:59;;;;;;;28.70;18.23;;;;;;;0.98;45.03;100083.22;124753;1105;104169;-79
2021/03/11 09:01:37;;;;;;;24.77;17.53;;;;;;;0.90;44.58;100056.66;124599;1105;104159;-79
2021/03/11 09:04:44;;;;;;;29.63;17.53;;;;;;;0.84;44.22;100078.02;124690;1105;104278;-79
2021/03/11 09:07:28;;;;;;;29.97;17.27;;;;;;;0.87;44.58;100056.63;124570;1105;104178;-78
2021/03/11 09:09:56;;;;;;;30.00;17.70;;;;;;;0.85;44.02;100059.19;124566;1105;104312;-79
2021/03/11 09:12:37;;;;;;;26.27;17.50;;;;;;;0.90;44.17;100036.13;124499;1106;102675;-76
2021/03/11 09:15:08;;;;;;;27.97;18.30;;;;;;;1.02;43.59;100025.88;124522;1109;104315;-79
2021/03/11 09:17:39;;;;;;;30.33;17.93;;;;;;;1.09;43.32;100012.21;124601;1105;104421;-79
2021/03/11 09:20:14;;;;;;;29.47;18.80;;;;;;;1.16;42.61;100013.07;124511;1109;104799;-79
2021/03/11 09:22:48;;;;;;;30.17;18.67;;;;;;;1.16;43.01;100016.50;124537;1106;104193;-79
2021/03/11 09:25:19;;;;;;;25.77;17.20;;;;;;;1.12;42.14;100007.08;124591;1106;102544;-79
2021/03/11 09:28:01;;;;;;;29.73;18.80;;;;;;;1.14;42.68;99989.09;124755;1105;104192;-79
2021/03/11 09:30:37;;;;;;;30.57;19.30;;;;;;;1.18;42.83;99975.39;124541;1105;103925;-78
2021/03/11 09:33:09;;;;;;;28.13;18.53;;;;;;;1.18;42.34;100006.22;124584;1109;104168;-78
2021/03/11 09:35:37;;;;;;;31.07;18.07;;;;;;;1.15;42.20;100030.20;124553;1106;104216;-78
2021/03/11 09:38:07;;;;;;;32.33;19.47;;;;;;;1.14;42.57;100033.62;124583;1105;102339;-78
2021/03/11 09:40:38;;;;;;;34.47;20.43;;;;;;;1.16;42.35;100043.89;124574;1106;104306;-78
2021/03/11 09:43:36;;;;;;;28.73;19.10;;;;;;;1.15;42.25;100008.79;124541;1109;104146;-79
2021/03/11 09:46:16;;;;;;;33.40;19.57;;;;;;;1.17;42.57;99983.95;124540;1105;104278;-78
2021/03/11 09:48:45;;;;;;;31.37;19.83;;;;;;;1.20;42.22;99997.66;124726;1105;104229;-79
2021/03/11 09:51:26;;;;;;;35.07;19.20;;;;;;;1.23;42.20;99972.83;124647;1109;104165;-79
2021/03/11 09:54:03;;;;;;;37.70;20.00;;;;;;;1.23;42.25;100001.08;124536;1105;104203;-79
2021/03/11 09:56:46;;;;;;;36.57;20.40;;;;;;;1.31;42.43;99946.30;124572;1108;105411;-78
2021/03/11 09:59:16;;;;;;;32.13;19.07;;;;;;;1.38;41.83;99936.88;124537;1105;104175;-78
2021/03/11 10:01:45;;;;;;;28.67;18.80;;;;;;;1.39;41.97;99967.70;124550;1109;104171;-79
2021/03/11 10:04:24;;;;;;;31.50;19.20;;;;;;;1.40;42.31;99925.73;124539;1105;104156;-78
2021/03/11 10:06:56;;;;;;;33.47;19.83;;;;;;;1.54;41.97;99907.74;124578;1106;104592;-79
2021/03/11 10:09:26;;;;;;;35.90;20.33;;;;;;;1.78;42.13;99887.13;124766;1105;104434;-79
2021/03/11 10:11:54;;;;;;;30.73;19.07;;;;;;;1.98;41.52;99881.95;124591;1109;104255;-79
2021/03/11 10:14:23;;;;;;;29.20;19.83;;;;;;;2.07;40.64;99917.06;124529;1106;104239;-79
2021/03/11 10:16:56;;;;;;;31.03;19.93;;;;;;;2.06;40.71;99863.91;124593;1106;104191;-79
2021/03/11 10:19:30;;;;;;;29.70;19.33;;;;;;;2.12;40.43;99872.45;124548;1109;104218;-78
2021/03/11 10:22:02;;;;;;;29.00;19.43;;;;;;;2.09;40.11;99885.32;124532;1106;104280;-79
2021/03/11 10:24:39;;;;;;;32.30;18.60;;;;;;;2.04;40.07;99906.79;124541;1105;104220;-79
2021/03/11 10:27:22;;;;;;;31.87;19.40;;;;;;;2.02;40.31;99882.79;124550;1105;104265;-79
2021/03/11 10:30:11;;;;;;;29.50;19.00;;;;;;;1.95;40.31;99857.94;124745;1105;104130;-79
2021/03/11 10:32:41;;;;;;;30.67;19.00;;;;;;;1.93;40.17;99859.66;124740;1105;103132;-79
2021/03/11 10:35:11;;;;;;;37.23;19.07;;;;;;;1.94;40.63;99846.80;124561;1106;104293;-79
2021/03/11 10:37:41;;;;;;;32.60;19.10;;;;;;;1.93;40.25;99846.80;124625;1105;104194;-79
2021/03/11 10:40:19;;;;;;;28.47;17.63;;;;;;;1.92;40.49;99856.23;124576;1106;104547;-79
2021/03/11 10:42:49;;;;;;;27.70;18.30;;;;;;;1.83;39.89;99881.99;124543;1109;104152;-79
2021/03/11 10:45:20;;;;;;;26.70;19.27;;;;;;;1.76;40.27;99828.86;124529;1105;105377;-79
2021/03/11 10:47:57;;;;;;;25.97;18.17;;;;;;;1.72;40.86;99812.59;124501;1109;103928;-79
2021/03/11 10:50:26;;;;;;;26.47;18.97;;;;;;;1.69;40.34;99814.32;124582;1105;104217;-79
2021/03/11 10:52:57;;;;;;;32.83;19.90;;;;;;;1.66;40.81;99822.91;124537;1105;104210;-79
2021/03/11 10:55:31;;;;;;;31.87;18.57;;;;;;;1.67;40.88;99791.20;124572;1105;104104;-77
2021/03/11 10:58:00;;;;;;;28.20;19.07;;;;;;;1.66;41.17;99806.62;124547;1109;104139;-79
2021/03/11 11:00:33;;;;;;;27.60;18.53;;;;;;;1.72;41.40;99820.30;124521;1106;104960;-79
2021/03/11 11:03:03;;;;;;;30.63;19.40;;;;;;;1.76;41.30;99774.86;124611;1106;105220;-79
2021/03/11 11:05:32;;;;;;;33.23;19.27;;;;;;;1.82;41.91;99774.86;124566;1105;104111;-79
2021/03/11 11:07:59;;;;;;;34.10;19.93;;;;;;;1.86;41.46;99755.98;124631;1106;103393;-79
2021/03/11 11:10:30;;;;;;;29.93;19.97;;;;;;;1.86;41.18;99765.41;124507;1107;104207;-78
2021/03/11 11:12:57;;;;;;;34.40;20.27;;;;;;;1.86;41.38;99760.27;124515;1106;104249;-79
2021/03/11 11:15:26;;;;;;;28.75;19.52;;;;;;;1.86;41.42;99757.70;124551;1105;104188;-78
2021/03/11 11:17:55;;;;;;;31.90;19.47;;;;;;;1.81;41.17;99758.58;124560;1106;104293;-79